FMST

Toliara Airport

Madagascar
TAF FMST 171100Z 1712/1812 24010KT 9999 FEW020 BECMG 1718/1721 VRB04KT
Issued Valid From Valid To
Aug-17 @ 11:00 UTC
(4 hours ago)
Aug-17 @ 12:00 UTC
(3 hours ago)
Aug-18 @ 12:00 UTC
(in 21 hours)
Aug-17 @ 12:00 to Aug-17 @ 18:00
TAF FMST 171100Z 1712/1812 24010KT 9999 FEW020
Wind Visibility Clouds
240° at 10 knots 10,000+ meters
  • Few at 2,000' AGL
Becoming Aug-17 @ 18:00 to Aug-18 @ 12:00
BECMG 1718/1721 VRB04KT
Wind Visibility Clouds
Variable at 4 knots 10,000+ meters
  • Few at 2,000' AGL
TAF FMST 171100Z 1712/1812 24010KT 9999 FEW020 BECMG 1718/1721 VRB04KT
Issued Aug-17 @ 11:00 UTC
(4 hours ago)
Valid From Aug-17 @ 12:00 UTC
(3 hours ago)
Valid To Aug-18 @ 12:00 UTC
(in 21 hours)
Aug-17 @ 12:00 - Aug-17 @ 18:00
Wind Visibility
240° at 10 knots 10,000+ meters
Clouds
  • Few at 2,000' AGL
Becoming Aug-17 @ 18:00 - Aug-18 @ 12:00
Wind Visibility
Variable at 4 knots 10,000+ meters
Clouds
  • Few at 2,000' AGL